createdAt,value
2023-05-24T00:00:48.279Z,13.43
2023-05-24T00:03:16.338Z,14.45
2023-05-24T00:05:43.497Z,17.20
2023-05-24T00:08:10.336Z,16.48
2023-05-24T00:10:37.169Z,17.40
2023-05-24T00:13:04.022Z,14.15
2023-05-24T00:15:30.901Z,16.15
2023-05-24T00:17:57.763Z,13.98
2023-05-24T00:20:24.743Z,11.52
2023-05-24T00:22:51.751Z,18.05
2023-05-24T00:25:18.604Z,22.65
2023-05-24T00:27:45.488Z,16.42
2023-05-24T00:30:12.750Z,16.02
2023-05-24T00:32:39.752Z,13.70
2023-05-24T00:35:06.973Z,16.67
2023-05-24T00:37:33.780Z,17.67
2023-05-24T00:40:00.612Z,14.85
2023-05-24T00:42:27.492Z,15.45
2023-05-24T00:44:54.305Z,18.17
2023-05-24T00:47:21.260Z,15.40
2023-05-24T00:49:48.135Z,18.92
2023-05-24T00:52:15.572Z,16.88
2023-05-24T00:54:42.474Z,16.58
2023-05-24T00:57:09.439Z,16.65
2023-05-24T00:59:36.609Z,19.35
2023-05-24T01:02:03.764Z,12.88
2023-05-24T01:04:33.106Z,15.63
2023-05-24T01:07:37.918Z,18.33
2023-05-24T01:10:30.784Z,17.00
2023-05-24T01:13:23.535Z,17.70
2023-05-24T01:16:17.823Z,24.08
2023-05-24T01:18:50.621Z,19.70
2023-05-24T01:21:34.580Z,29.98
2023-05-24T01:24:30.664Z,14.70
2023-05-24T01:27:12.422Z,20.90
2023-05-24T01:29:39.687Z,15.02
2023-05-24T01:32:07.397Z,17.70
2023-05-24T01:34:34.202Z,19.90
2023-05-24T01:37:01.021Z,15.95
2023-05-24T01:39:29.934Z,20.05
2023-05-24T01:42:33.639Z,21.88
2023-05-24T01:45:20.047Z,16.83
2023-05-24T01:48:19.561Z,19.25
2023-05-24T01:50:53.344Z,18.83
2023-05-24T01:53:21.524Z,19.25
2023-05-24T01:55:55.824Z,17.90
2023-05-24T02:00:51.930Z,19.77
2023-05-24T02:03:19.648Z,21.23
2023-05-24T02:05:46.736Z,14.77
2023-05-24T02:08:13.822Z,25.65
2023-05-24T02:10:41.368Z,24.63
2023-05-24T02:13:09.190Z,16.98
2023-05-24T02:15:36.395Z,20.30
2023-05-24T02:18:03.994Z,16.80
2023-05-24T02:20:31.490Z,16.60
2023-05-24T02:22:58.571Z,21.27
2023-05-24T02:25:25.581Z,21.02
2023-05-24T02:27:52.484Z,17.73
2023-05-24T02:30:19.571Z,25.10
2023-05-24T02:32:46.757Z,24.35
2023-05-24T02:35:13.858Z,20.77
2023-05-24T02:37:40.987Z,21.55
2023-05-24T02:40:08.537Z,19.80
2023-05-24T02:42:35.564Z,18.70
2023-05-24T02:45:02.857Z,23.83
2023-05-24T02:47:29.858Z,21.77
2023-05-24T02:49:56.725Z,23.42
2023-05-24T02:52:23.615Z,23.15
2023-05-24T02:54:50.817Z,18.63
2023-05-24T02:57:18.221Z,19.30
2023-05-24T02:59:45.061Z,20.63
2023-05-24T03:02:13.741Z,18.45
2023-05-24T03:04:40.788Z,22.48
2023-05-24T03:07:07.589Z,23.95
2023-05-24T03:09:34.435Z,20.05
2023-05-24T03:12:01.715Z,27.70
2023-05-24T03:14:28.517Z,22.60
2023-05-24T03:16:55.377Z,23.17
2023-05-24T03:19:22.673Z,25.05
2023-05-24T03:21:49.523Z,27.25
2023-05-24T03:24:16.355Z,28.67
2023-05-24T03:26:43.180Z,24.98
2023-05-24T03:29:10.054Z,28.75
2023-05-24T03:31:36.936Z,29.60
2023-05-24T03:34:03.861Z,22.98
2023-05-24T03:36:30.889Z,24.40
2023-05-24T03:38:58.996Z,26.55
2023-05-24T03:41:27.524Z,32.00
2023-05-24T03:43:54.361Z,31.70
2023-05-24T03:46:21.258Z,31.77
2023-05-24T03:48:49.585Z,31.05
2023-05-24T03:51:16.673Z,28.42
2023-05-24T03:53:43.681Z,25.52
2023-05-24T03:56:10.533Z,24.63
2023-05-24T03:58:37.504Z,34.70
2023-05-24T04:01:04.440Z,24.02
2023-05-24T04:03:34.198Z,28.85
2023-05-24T04:06:01.436Z,26.85
2023-05-24T04:08:28.352Z,28.88
2023-05-24T04:10:55.618Z,23.38
2023-05-24T04:13:22.529Z,31.90
2023-05-24T04:15:49.492Z,24.42
2023-05-24T04:18:16.496Z,24.15
2023-05-24T04:20:43.560Z,29.08
2023-05-24T04:23:10.614Z,22.70
2023-05-24T04:25:37.457Z,26.63
2023-05-24T04:28:04.271Z,23.88
2023-05-24T04:30:31.360Z,21.95
2023-05-24T04:32:58.783Z,33.88
2023-05-24T04:35:25.778Z,29.13
2023-05-24T04:37:52.832Z,25.20
2023-05-24T04:40:22.936Z,23.08
2023-05-24T04:42:50.529Z,29.85
2023-05-24T04:45:17.368Z,22.35
2023-05-24T04:47:44.891Z,28.60
2023-05-24T04:50:11.778Z,28.23
2023-05-24T04:52:38.775Z,27.48
2023-05-24T04:55:06.185Z,21.95
2023-05-24T04:57:33.086Z,26.17
2023-05-24T05:00:00.064Z,19.83
2023-05-24T05:02:27.219Z,25.58
2023-05-24T05:04:54.203Z,26.58
2023-05-24T05:07:21.528Z,25.52
2023-05-24T05:09:48.488Z,23.13
2023-05-24T05:12:18.185Z,23.80
2023-05-24T05:14:45.000Z,27.55
2023-05-24T05:17:11.829Z,22.88
2023-05-24T05:19:38.714Z,23.90
2023-05-24T05:22:05.605Z,28.58
2023-05-24T05:24:32.464Z,24.35
2023-05-24T05:26:59.306Z,29.83
2023-05-24T05:29:26.125Z,27.08
2023-05-24T05:31:53.025Z,24.77
2023-05-24T05:34:21.160Z,29.52
2023-05-24T05:36:48.033Z,19.48
2023-05-24T05:39:14.968Z,27.52
2023-05-24T05:41:45.754Z,25.27
2023-05-24T05:44:13.396Z,25.00
2023-05-24T05:46:41.514Z,23.88
2023-05-24T05:49:09.205Z,32.20
2023-05-24T05:51:37.813Z,17.05
2023-05-24T05:54:05.913Z,18.83
2023-05-24T05:56:32.861Z,24.42
2023-05-24T05:58:59.724Z,22.27
2023-05-24T06:01:26.675Z,34.17
2023-05-24T06:03:53.613Z,22.02
2023-05-24T06:06:20.502Z,29.17
2023-05-24T06:08:47.313Z,23.08
2023-05-24T06:11:14.221Z,25.08
2023-05-24T06:13:44.219Z,23.55
2023-05-24T06:16:11.246Z,32.55
2023-05-24T06:18:38.557Z,27.52
2023-05-24T06:21:05.545Z,25.80
2023-05-24T06:23:32.792Z,28.63
2023-05-24T06:26:01.456Z,21.52
2023-05-24T06:28:28.398Z,22.70
2023-05-24T06:30:55.451Z,27.80
2023-05-24T06:33:23.353Z,29.40
2023-05-24T06:35:50.217Z,28.38
2023-05-24T06:38:17.819Z,24.63
2023-05-24T06:40:44.829Z,16.95
2023-05-24T06:43:14.073Z,21.95
2023-05-24T06:45:41.568Z,27.45
2023-05-24T06:48:08.969Z,20.27
2023-05-24T06:50:39.105Z,27.90
2023-05-24T06:53:07.145Z,22.65
2023-05-24T06:55:34.055Z,23.70
2023-05-24T06:58:00.876Z,20.17
2023-05-24T07:00:27.813Z,21.65
2023-05-24T07:02:54.818Z,24.92
2023-05-24T07:05:22.213Z,21.40
2023-05-24T07:07:49.136Z,24.33
2023-05-24T07:10:15.944Z,16.13
2023-05-24T07:12:42.752Z,22.00
2023-05-24T07:15:10.130Z,20.63
2023-05-24T07:17:37.310Z,21.60
2023-05-24T07:20:09.499Z,23.55
2023-05-24T07:22:36.797Z,21.17
2023-05-24T07:25:04.572Z,21.88
2023-05-24T07:27:31.462Z,23.58
2023-05-24T07:29:58.706Z,16.42
2023-05-24T07:32:25.613Z,22.45
2023-05-24T07:34:52.549Z,22.95
2023-05-24T07:37:19.391Z,23.50
2023-05-24T07:39:46.275Z,21.75
2023-05-24T07:42:13.111Z,22.08
2023-05-24T07:44:40.531Z,26.20
2023-05-24T07:47:07.550Z,23.20
2023-05-24T07:49:34.400Z,16.05
2023-05-24T07:52:01.270Z,21.80
2023-05-24T07:54:28.180Z,20.45
2023-05-24T07:56:55.223Z,19.83
2023-05-24T07:59:22.893Z,24.52
2023-05-24T08:01:50.500Z,17.10
2023-05-24T08:04:17.308Z,17.75
2023-05-24T08:06:46.495Z,20.85
2023-05-24T08:09:13.405Z,21.70
2023-05-24T08:11:43.060Z,23.95
2023-05-24T08:14:12.900Z,19.92
2023-05-24T08:16:39.864Z,18.48
2023-05-24T08:19:06.864Z,20.55
2023-05-24T08:21:33.885Z,24.95
2023-05-24T08:24:04.401Z,15.38
2023-05-24T08:26:32.263Z,32.45
2023-05-24T08:28:59.412Z,22.67
2023-05-24T08:31:26.364Z,27.25
2023-05-24T08:33:54.919Z,21.60
2023-05-24T08:36:22.195Z,17.17
2023-05-24T08:38:52.031Z,23.33
2023-05-24T08:41:18.900Z,23.48
2023-05-24T08:43:47.722Z,21.05
2023-05-24T08:46:17.794Z,14.63
2023-05-24T08:48:48.400Z,20.52
2023-05-24T08:51:16.117Z,19.48
2023-05-24T08:53:48.408Z,16.27
2023-05-24T08:56:18.304Z,21.77
2023-05-24T08:58:48.038Z,17.60
2023-05-24T09:01:17.289Z,21.45
2023-05-24T09:03:46.804Z,19.40
2023-05-24T09:06:18.284Z,29.02
2023-05-24T09:08:46.180Z,27.80
2023-05-24T09:11:16.027Z,18.70
2023-05-24T09:13:45.393Z,24.42
2023-05-24T09:16:12.507Z,19.95
2023-05-24T09:18:41.688Z,23.48
2023-05-24T09:21:10.781Z,23.95
2023-05-24T09:23:38.167Z,23.80
2023-05-24T09:26:11.345Z,24.35
2023-05-24T09:28:38.852Z,24.98
2023-05-24T09:31:07.888Z,19.60
2023-05-24T09:33:35.990Z,20.25
2023-05-24T09:36:07.722Z,21.60
2023-05-24T09:38:36.326Z,28.52
2023-05-24T09:41:06.593Z,22.45
2023-05-24T09:43:36.102Z,23.42
2023-05-24T09:46:06.287Z,15.27
2023-05-24T09:48:33.092Z,14.52
2023-05-24T09:51:09.656Z,19.85
2023-05-24T09:53:37.180Z,17.13
2023-05-24T09:56:05.449Z,14.18
2023-05-24T09:58:33.446Z,20.15
2023-05-24T10:01:08.907Z,15.02
2023-05-24T10:03:37.437Z,16.65
2023-05-24T10:06:07.588Z,18.00
2023-05-24T10:08:36.342Z,11.77
2023-05-24T10:11:06.240Z,13.75
2023-05-24T10:13:36.515Z,15.43
2023-05-24T10:16:03.941Z,17.65
2023-05-24T10:18:31.304Z,13.38
2023-05-24T10:20:59.446Z,13.82
2023-05-24T10:23:31.023Z,15.30
2023-05-24T10:26:12.695Z,14.00
2023-05-24T10:28:44.942Z,15.30
2023-05-24T10:31:18.552Z,13.13
2023-05-24T10:33:48.598Z,14.05
2023-05-24T10:36:16.309Z,11.20
2023-05-24T10:38:43.616Z,11.60
2023-05-24T10:41:13.358Z,14.55
2023-05-24T10:43:40.543Z,12.50
2023-05-24T10:46:10.122Z,12.55
2023-05-24T10:48:41.640Z,9.70
2023-05-24T10:51:38.650Z,14.27
2023-05-24T10:54:18.081Z,18.17
2023-05-24T10:56:48.436Z,17.17
2023-05-24T10:59:39.087Z,14.68
2023-05-24T11:02:16.365Z,25.63
2023-05-24T11:04:46.906Z,22.83
2023-05-24T11:07:15.774Z,24.50
2023-05-24T11:09:46.506Z,26.27
2023-05-24T11:12:18.969Z,19.65
2023-05-24T11:14:52.055Z,25.73
2023-05-24T11:17:23.838Z,21.33
2023-05-24T11:19:53.076Z,27.02
2023-05-24T11:22:25.456Z,23.75
2023-05-24T11:24:53.328Z,18.23
2023-05-24T11:27:24.453Z,24.30
2023-05-24T11:29:52.599Z,20.88
2023-05-24T11:32:21.324Z,23.15
2023-05-24T11:34:48.946Z,32.80
2023-05-24T11:37:18.072Z,21.50
2023-05-24T11:39:52.097Z,24.20
2023-05-24T11:42:19.549Z,22.13
2023-05-24T11:44:49.839Z,21.80
2023-05-24T11:47:16.698Z,17.88
2023-05-24T11:49:43.514Z,24.38
2023-05-24T11:52:10.378Z,21.67
2023-05-24T11:54:38.753Z,24.92
2023-05-24T11:57:06.379Z,19.58
2023-05-24T11:59:35.689Z,21.15
2023-05-24T12:02:05.857Z,23.50
2023-05-24T12:04:36.556Z,22.85
2023-05-24T12:07:03.622Z,17.63
2023-05-24T12:09:30.567Z,18.65
2023-05-24T12:12:00.116Z,25.75
2023-05-24T12:14:35.700Z,21.45
2023-05-24T12:17:02.722Z,14.88
2023-05-24T12:19:37.284Z,21.80
2023-05-24T12:22:06.238Z,14.52
2023-05-24T12:24:34.017Z,17.65
2023-05-24T12:27:03.491Z,17.77
2023-05-24T12:29:36.310Z,19.27
2023-05-24T12:32:05.243Z,17.20
2023-05-24T12:34:32.807Z,17.52
2023-05-24T12:37:00.288Z,24.65
2023-05-24T12:39:35.157Z,15.00
2023-05-24T12:42:03.913Z,13.70
2023-05-24T12:44:39.265Z,21.90
2023-05-24T12:47:08.087Z,14.25
2023-05-24T12:49:35.726Z,20.45
2023-05-24T12:52:02.823Z,16.95
2023-05-24T12:54:30.292Z,13.88
2023-05-24T12:57:00.005Z,13.30
2023-05-24T12:59:28.473Z,12.70
2023-05-24T13:01:55.776Z,16.98
2023-05-24T13:04:26.045Z,13.68
2023-05-24T13:06:52.954Z,14.35
2023-05-24T13:09:22.355Z,21.70
2023-05-24T13:11:49.369Z,14.05
2023-05-24T13:14:16.871Z,16.88
2023-05-24T13:16:44.391Z,14.15
2023-05-24T13:19:12.333Z,18.10
2023-05-24T13:21:39.579Z,14.48
2023-05-24T13:24:07.527Z,12.98
2023-05-24T13:26:38.170Z,13.13
2023-05-24T13:31:39.237Z,10.52
2023-05-24T13:34:07.348Z,11.45
2023-05-24T13:36:35.117Z,11.68
2023-05-24T13:39:14.850Z,12.00
2023-05-24T13:41:49.251Z,9.20
2023-05-24T13:44:16.773Z,11.32
2023-05-24T13:46:44.504Z,9.45
2023-05-24T13:49:12.014Z,14.15
2023-05-24T13:51:40.081Z,10.75
2023-05-24T13:54:07.421Z,11.57
2023-05-24T13:56:35.209Z,13.02
2023-05-24T13:59:03.662Z,12.10
2023-05-24T14:01:31.269Z,10.27
2023-05-24T14:03:58.736Z,7.95
2023-05-24T14:06:25.686Z,13.18
2023-05-24T14:08:52.601Z,11.68
2023-05-24T14:11:19.713Z,15.63
2023-05-24T14:16:19.180Z,10.85
2023-05-24T14:18:48.912Z,11.85
2023-05-24T14:21:16.254Z,11.05
2023-05-24T14:23:43.111Z,11.57
2023-05-24T14:26:10.027Z,12.90
2023-05-24T14:28:36.872Z,11.88
2023-05-24T14:31:03.798Z,10.48
2023-05-24T14:33:30.668Z,5.35
2023-05-24T14:35:57.576Z,10.70
2023-05-24T14:38:25.348Z,9.25
2023-05-24T14:40:52.221Z,9.85
2023-05-24T14:43:19.079Z,15.60
2023-05-24T14:45:46.150Z,12.15
2023-05-24T14:48:15.967Z,5.97
2023-05-24T14:50:43.238Z,9.57
2023-05-24T14:53:12.186Z,10.57
2023-05-24T14:55:42.038Z,9.95
2023-05-24T14:58:11.335Z,8.43
2023-05-24T15:00:39.353Z,7.95
2023-05-24T15:03:07.913Z,7.78
2023-05-24T15:05:36.183Z,12.73
2023-05-24T15:08:03.219Z,9.43
2023-05-24T15:10:30.167Z,10.07
2023-05-24T15:12:57.009Z,8.85
2023-05-24T15:15:23.917Z,5.63
2023-05-24T15:17:50.898Z,8.43
2023-05-24T15:20:19.387Z,9.65
2023-05-24T15:22:46.629Z,13.48
2023-05-24T15:25:13.538Z,12.43
2023-05-24T15:27:40.359Z,12.75
2023-05-24T15:30:07.864Z,9.38
2023-05-24T15:32:34.874Z,10.98
2023-05-24T15:35:01.990Z,8.85
2023-05-24T15:37:28.858Z,12.65
2023-05-24T15:39:55.734Z,11.45
2023-05-24T15:42:24.480Z,8.68
2023-05-24T15:44:51.620Z,9.10
2023-05-24T15:47:21.172Z,14.90
2023-05-24T15:49:49.658Z,15.05
2023-05-24T15:52:16.730Z,16.65
2023-05-24T15:54:43.608Z,16.95
2023-05-24T15:57:10.805Z,12.82
2023-05-24T15:59:38.614Z,13.73
2023-05-24T16:02:07.792Z,17.85
2023-05-24T16:04:34.834Z,12.85
2023-05-24T16:07:01.810Z,14.90
2023-05-24T16:09:28.724Z,16.42
2023-05-24T16:11:55.609Z,15.90
2023-05-24T16:14:22.459Z,18.10
2023-05-24T16:16:49.324Z,20.88
2023-05-24T16:19:16.492Z,23.15
2023-05-24T16:21:43.367Z,18.73
2023-05-24T16:24:12.816Z,13.52
2023-05-24T16:26:39.652Z,17.60
2023-05-24T16:29:07.050Z,13.93
2023-05-24T16:31:34.067Z,23.75
2023-05-24T16:34:01.173Z,11.30
2023-05-24T16:36:28.058Z,19.88
2023-05-24T16:38:54.948Z,12.13
2023-05-24T16:41:21.923Z,22.33
2023-05-24T16:43:49.287Z,14.35
2023-05-24T16:46:16.247Z,19.80
2023-05-24T16:48:43.126Z,14.30
2023-05-24T16:51:09.996Z,15.10
2023-05-24T16:53:36.851Z,14.15
2023-05-24T16:56:06.602Z,12.93
2023-05-24T16:58:33.449Z,20.95
2023-05-24T17:01:00.708Z,10.18
2023-05-24T17:03:28.751Z,12.25
2023-05-24T17:06:01.929Z,16.85
2023-05-24T17:10:59.914Z,18.02
2023-05-24T17:13:30.021Z,12.55
2023-05-24T17:15:57.881Z,16.00
2023-05-24T17:18:28.923Z,10.15
2023-05-24T17:21:04.333Z,12.52
2023-05-24T17:23:33.800Z,16.10
2023-05-24T17:26:02.437Z,17.20
2023-05-24T17:28:29.880Z,15.40
2023-05-24T17:30:59.146Z,13.05
2023-05-24T17:33:28.551Z,13.43
2023-05-24T17:35:59.447Z,18.83
2023-05-24T17:38:26.301Z,18.70
2023-05-24T17:40:56.912Z,18.38
2023-05-24T17:43:25.014Z,17.95
2023-05-24T17:45:51.923Z,22.40
2023-05-24T17:48:18.806Z,12.93
2023-05-24T17:50:45.777Z,11.95
2023-05-24T17:53:29.962Z,17.38
2023-05-24T17:55:57.546Z,11.55
2023-05-24T17:58:24.397Z,11.88
2023-05-24T18:00:51.293Z,12.63
2023-05-24T18:03:18.179Z,17.52
2023-05-24T18:05:45.291Z,12.68
2023-05-24T18:08:12.194Z,14.73
2023-05-24T18:10:39.049Z,14.52
2023-05-24T18:13:09.430Z,10.32
2023-05-24T18:15:36.584Z,13.02
2023-05-24T18:18:03.744Z,15.50
2023-05-24T18:20:30.758Z,13.85
2023-05-24T18:22:57.712Z,13.27
2023-05-24T18:25:24.577Z,13.77
2023-05-24T18:27:51.590Z,15.63
2023-05-24T18:30:18.499Z,11.85
2023-05-24T18:32:56.299Z,15.13
2023-05-24T18:35:31.997Z,12.65
2023-05-24T18:38:01.585Z,13.48
2023-05-24T18:40:28.408Z,12.75
2023-05-24T18:42:55.208Z,13.50
2023-05-24T18:45:22.743Z,10.23
2023-05-24T18:47:49.606Z,10.80
2023-05-24T18:50:16.980Z,12.15
2023-05-24T18:52:43.852Z,18.15
2023-05-24T18:55:10.836Z,9.77
2023-05-24T18:57:38.414Z,13.32
2023-05-24T19:00:09.355Z,11.60
2023-05-24T19:02:38.657Z,10.10
2023-05-24T19:05:07.210Z,12.40
2023-05-24T19:07:35.350Z,16.40
2023-05-24T19:10:02.795Z,13.05
2023-05-24T19:12:30.405Z,13.82
2023-05-24T19:14:57.336Z,16.58
2023-05-24T19:17:24.973Z,11.65
2023-05-24T19:19:52.374Z,11.68
2023-05-24T19:22:19.497Z,20.58
2023-05-24T19:24:46.791Z,15.63
2023-05-24T19:27:13.694Z,15.55
2023-05-24T19:29:40.671Z,15.45
2023-05-24T19:32:08.310Z,25.35
2023-05-24T19:34:37.404Z,13.68
2023-05-24T19:37:04.492Z,17.88
2023-05-24T19:39:31.375Z,20.95
2023-05-24T19:41:58.193Z,15.43
2023-05-24T19:44:25.022Z,11.88
2023-05-24T19:46:51.850Z,15.45
2023-05-24T19:49:18.683Z,15.75
2023-05-24T19:51:45.643Z,16.45
2023-05-24T19:54:12.881Z,16.55
2023-05-24T19:56:39.756Z,19.73
2023-05-24T19:59:07.336Z,13.73
2023-05-24T20:01:34.414Z,18.10
2023-05-24T20:04:01.527Z,17.65
2023-05-24T20:06:29.444Z,11.52
2023-05-24T20:08:58.715Z,19.05
2023-05-24T20:11:26.547Z,11.55
2023-05-24T20:13:53.429Z,13.88
2023-05-24T20:16:20.481Z,12.55
2023-05-24T20:18:47.321Z,17.77
2023-05-24T20:21:17.746Z,16.27
2023-05-24T20:23:44.771Z,15.77
2023-05-24T20:26:11.698Z,13.38
2023-05-24T20:28:38.627Z,13.60
2023-05-24T20:31:06.458Z,21.25
2023-05-24T20:33:37.743Z,15.50
2023-05-24T20:36:05.372Z,21.10
2023-05-24T20:38:32.169Z,19.27
2023-05-24T20:40:59.664Z,12.18
2023-05-24T20:43:26.562Z,18.77
2023-05-24T20:45:53.809Z,17.15
2023-05-24T20:48:21.089Z,15.07
2023-05-24T20:50:48.056Z,14.40
2023-05-24T20:53:14.900Z,15.00
2023-05-24T20:55:41.854Z,14.52
2023-05-24T20:58:08.769Z,14.43
2023-05-24T21:00:37.632Z,22.42
2023-05-24T21:03:06.236Z,16.88
2023-05-24T21:05:36.301Z,14.60
2023-05-24T21:08:03.894Z,19.98
2023-05-24T21:10:30.755Z,17.38
2023-05-24T21:12:57.752Z,12.55
2023-05-24T21:15:24.897Z,14.18
2023-05-24T21:17:51.751Z,15.95
2023-05-24T21:20:18.655Z,15.18
2023-05-24T21:22:46.127Z,19.00
2023-05-24T21:25:13.118Z,16.50
2023-05-24T21:27:39.947Z,12.88
2023-05-24T21:30:07.877Z,17.42
2023-05-24T21:32:34.733Z,11.32
2023-05-24T21:35:01.690Z,14.75
2023-05-24T21:37:28.553Z,15.60
2023-05-24T21:39:55.543Z,12.93
2023-05-24T21:42:22.395Z,14.93
2023-05-24T21:44:49.265Z,14.95
2023-05-24T21:47:16.178Z,16.85
2023-05-24T21:49:43.102Z,18.50
2023-05-24T21:52:09.948Z,13.02
2023-05-24T21:54:36.796Z,14.93
2023-05-24T21:57:03.739Z,16.85
2023-05-24T21:59:30.584Z,12.85
2023-05-24T22:01:57.497Z,18.25
2023-05-24T22:04:24.452Z,17.48
2023-05-24T22:06:51.285Z,15.25
2023-05-24T22:09:18.104Z,21.05
2023-05-24T22:11:44.932Z,16.90
2023-05-24T22:14:11.782Z,15.43
2023-05-24T22:16:38.641Z,14.90
2023-05-24T22:19:14.852Z,16.08
2023-05-24T22:21:43.707Z,18.20
2023-05-24T22:24:10.752Z,15.10
2023-05-24T22:26:38.113Z,15.45
2023-05-24T22:29:05.002Z,16.00
2023-05-24T22:31:36.070Z,15.00
2023-05-24T22:34:02.986Z,14.05
2023-05-24T22:36:33.737Z,16.48
2023-05-24T22:39:05.152Z,18.92
2023-05-24T22:41:32.136Z,15.63
2023-05-24T22:43:59.600Z,15.20
2023-05-24T22:46:26.588Z,18.70
2023-05-24T22:48:53.487Z,17.60
2023-05-24T22:51:20.629Z,20.08
2023-05-24T22:53:48.322Z,22.48
2023-05-24T22:56:15.408Z,17.90
2023-05-24T22:58:42.255Z,17.77
2023-05-24T23:01:09.128Z,15.18
2023-05-24T23:03:36.164Z,11.40
2023-05-24T23:06:04.617Z,14.13
2023-05-24T23:08:32.464Z,15.82
2023-05-24T23:11:00.228Z,20.45
2023-05-24T23:13:33.716Z,13.82
2023-05-24T23:16:00.847Z,13.65
2023-05-24T23:18:28.147Z,14.18
2023-05-24T23:20:56.055Z,18.17
2023-05-24T23:23:24.597Z,18.05
2023-05-24T23:25:51.621Z,14.50
2023-05-24T23:28:18.971Z,23.13
2023-05-24T23:30:49.017Z,14.35
2023-05-24T23:33:15.874Z,15.07
2023-05-24T23:35:42.912Z,18.85
2023-05-24T23:38:09.878Z,12.52
2023-05-24T23:40:36.753Z,21.00
2023-05-24T23:43:04.339Z,14.80
2023-05-24T23:45:31.313Z,13.25
2023-05-24T23:47:58.744Z,12.82
2023-05-24T23:50:27.419Z,14.65
2023-05-24T23:52:54.944Z,14.63
2023-05-24T23:55:23.217Z,14.15
2023-05-24T23:57:50.417Z,12.10
